Richmond, VA (23282)

1:32 PM EST on February 20, 2017 (GMT -0500)
Richmond Fan District | | Change Station

Elev 230 ft 37.55 °N, 77.47 °W | Updated 32 seconds ago

Clear
Clear
70.9 °F
Feels Like 77 °F
N
4.0
Wind Variable Wind from ESE

Today
High -- | Low -- °F
--% Chance of Precip.
Yesterday
High -- | Low -- °F
Precip. -- in
Pressure 30.21 in
Visibility 10.0 miles
Clouds Scattered Clouds 30000 ft
Heat Index 77 °F
Dew Point 42 °F
Humidity 35%
Rainfall 0.00 in
Snow Depth Not available.
6:52 AM 5:54 PM
Waning Crescent, 32% visible
METAR KRIC 201754Z 34008G14KT 10SM SCT300 19/04 A3020 RMK AO2 SLP230 T01940039 10194 20078 58014
Pressure 30.21 in
Visibility 10.0 miles
Clouds Scattered Clouds 30000 ft
Heat Index 77 °F
Dew Point 42 °F
Humidity 35%
Rainfall 0.00 in
Snow Depth Not available.
6:52 AM 5:54 PM
Waning Crescent, 32% visible
METAR KRIC 201754Z 34008G14KT 10SM SCT300 19/04 A3020 RMK AO2 SLP230 T01940039 10194 20078 58014

Get Your Daily Forecast Email!

Thanks for signing up!

Be on the lookout for a verification email in your inbox.

You'll start receiving the daily forecast at 8 AM.

×

10-Day Weather Forecast

Almanac

Astronomy

Feb. 20, 2017 Rise Set
Actual Time
Civil Twilight
Nautical Twilight
Astronomical Twilight
Moon
Length of Visible Light
Length of Day
Tomorrow will be .
, % of the Moon is Illuminated

Today's Extremes

State Highs State Lows

Community

WunderPhotos

Upload Photos

1,962,540 photos uploaded!

WunderBlog® & News

Nearby

Air Quality

  Air Quality AQ Index Pollutant
Not available.

Snow Depth

Station Depth Elevation

Earthquake Activity

City Distance Mag. Time & Date
Minimum magnitude displayed is 2.5.

Coastal Water Temperatures

Place Temperature

Stations

Nearby Weather Stations

Station Location Temp. Windchill Dew Point Humidity Wind Precip. Elev Updated Type
                   

Watches & Warnings

There are currently no watches in effect.